sensor_id;sensor_type;location;lat;lon;timestamp;temperature;humidity
18658;DHT22;9458;50.942;5.074;2022-07-26T00:02:24;21.10;98.60
18658;DHT22;9458;50.942;5.074;2022-07-26T00:04:52;21.10;98.60
18658;DHT22;9458;50.942;5.074;2022-07-26T00:07:20;21.10;98.70
18658;DHT22;9458;50.942;5.074;2022-07-26T00:09:49;21.00;98.70
18658;DHT22;9458;50.942;5.074;2022-07-26T00:12:16;20.90;99.00
18658;DHT22;9458;50.942;5.074;2022-07-26T00:14:44;21.00;99.10
18658;DHT22;9458;50.942;5.074;2022-07-26T00:17:12;21.00;99.10
18658;DHT22;9458;50.942;5.074;2022-07-26T00:19:39;20.90;99.10
18658;DHT22;9458;50.942;5.074;2022-07-26T00:22:08;20.90;99.30
18658;DHT22;9458;50.942;5.074;2022-07-26T00:24:59;20.90;99.30
18658;DHT22;9458;50.942;5.074;2022-07-26T00:27:27;20.90;99.30
18658;DHT22;9458;50.942;5.074;2022-07-26T00:29:54;20.90;99.40
18658;DHT22;9458;50.942;5.074;2022-07-26T00:32:25;20.90;99.40
18658;DHT22;9458;50.942;5.074;2022-07-26T00:34:53;20.80;99.40
18658;DHT22;9458;50.942;5.074;2022-07-26T00:37:20;20.80;99.50
18658;DHT22;9458;50.942;5.074;2022-07-26T00:39:48;20.70;99.60
18658;DHT22;9458;50.942;5.074;2022-07-26T00:42:17;20.70;99.70
18658;DHT22;9458;50.942;5.074;2022-07-26T00:44:47;20.70;99.80
18658;DHT22;9458;50.942;5.074;2022-07-26T00:47:15;20.70;99.90
18658;DHT22;9458;50.942;5.074;2022-07-26T00:49:44;20.60;99.90
18658;DHT22;9458;50.942;5.074;2022-07-26T00:52:12;20.60;99.90
18658;DHT22;9458;50.942;5.074;2022-07-26T00:54:42;20.60;99.90
18658;DHT22;9458;50.942;5.074;2022-07-26T00:57:11;20.60;99.90
18658;DHT22;9458;50.942;5.074;2022-07-26T00:59:41;20.60;99.90
18658;DHT22;9458;50.942;5.074;2022-07-26T01:02:09;20.60;99.90
18658;DHT22;9458;50.942;5.074;2022-07-26T01:04:37;20.70;99.90
18658;DHT22;9458;50.942;5.074;2022-07-26T01:07:05;20.60;99.90
18658;DHT22;9458;50.942;5.074;2022-07-26T01:09:33;20.60;99.90
18658;DHT22;9458;50.942;5.074;2022-07-26T01:12:00;20.50;99.90
18658;DHT22;9458;50.942;5.074;2022-07-26T01:14:28;20.50;99.90
18658;DHT22;9458;50.942;5.074;2022-07-26T01:16:58;20.50;99.90
18658;DHT22;9458;50.942;5.074;2022-07-26T01:19:26;20.50;99.90
18658;DHT22;9458;50.942;5.074;2022-07-26T01:21:55;20.40;99.90
18658;DHT22;9458;50.942;5.074;2022-07-26T01:24:22;20.40;99.90
18658;DHT22;9458;50.942;5.074;2022-07-26T01:26:51;20.30;99.90
18658;DHT22;9458;50.942;5.074;2022-07-26T01:29:20;20.30;99.90
18658;DHT22;9458;50.942;5.074;2022-07-26T01:31:48;20.30;99.90
18658;DHT22;9458;50.942;5.074;2022-07-26T01:34:17;20.20;99.90
18658;DHT22;9458;50.942;5.074;2022-07-26T01:36:44;20.20;99.90
18658;DHT22;9458;50.942;5.074;2022-07-26T01:39:14;20.20;99.90
18658;DHT22;9458;50.942;5.074;2022-07-26T01:41:42;20.20;99.90
18658;DHT22;9458;50.942;5.074;2022-07-26T01:44:09;20.20;99.90
18658;DHT22;9458;50.942;5.074;2022-07-26T01:46:36;20.20;99.90
18658;DHT22;9458;50.942;5.074;2022-07-26T01:49:04;20.20;99.90
18658;DHT22;9458;50.942;5.074;2022-07-26T01:51:32;20.30;99.90
18658;DHT22;9458;50.942;5.074;2022-07-26T01:53:59;20.20;99.90
18658;DHT22;9458;50.942;5.074;2022-07-26T01:56:31;20.20;99.90
18658;DHT22;9458;50.942;5.074;2022-07-26T01:59:02;20.20;99.90
18658;DHT22;9458;50.942;5.074;2022-07-26T02:01:30;20.30;99.90
18658;DHT22;9458;50.942;5.074;2022-07-26T02:04:13;20.30;99.90
18658;DHT22;9458;50.942;5.074;2022-07-26T02:06:55;20.20;99.90
18658;DHT22;9458;50.942;5.074;2022-07-26T02:09:23;20.30;99.90
18658;DHT22;9458;50.942;5.074;2022-07-26T02:11:53;20.30;99.90
18658;DHT22;9458;50.942;5.074;2022-07-26T02:14:21;20.30;99.90
18658;DHT22;9458;50.942;5.074;2022-07-26T02:16:49;20.30;99.90
18658;DHT22;9458;50.942;5.074;2022-07-26T02:19:21;20.30;99.90
18658;DHT22;9458;50.942;5.074;2022-07-26T02:21:49;20.30;99.90
18658;DHT22;9458;50.942;5.074;2022-07-26T02:24:17;20.30;99.90
18658;DHT22;9458;50.942;5.074;2022-07-26T02:26:45;20.30;99.90
18658;DHT22;9458;50.942;5.074;2022-07-26T02:29:14;20.30;99.90
18658;DHT22;9458;50.942;5.074;2022-07-26T02:31:42;20.30;99.90
18658;DHT22;9458;50.942;5.074;2022-07-26T02:34:09;20.30;99.90
18658;DHT22;9458;50.942;5.074;2022-07-26T02:36:36;20.30;99.90
18658;DHT22;9458;50.942;5.074;2022-07-26T02:39:04;20.30;99.90
18658;DHT22;9458;50.942;5.074;2022-07-26T02:41:32;20.30;99.90
18658;DHT22;9458;50.942;5.074;2022-07-26T02:44:00;20.30;99.90
18658;DHT22;9458;50.942;5.074;2022-07-26T02:46:29;20.30;99.90
18658;DHT22;9458;50.942;5.074;2022-07-26T02:48:57;20.30;99.90
18658;DHT22;9458;50.942;5.074;2022-07-26T02:51:25;20.30;99.90
18658;DHT22;9458;50.942;5.074;2022-07-26T02:53:54;20.30;99.90
18658;DHT22;9458;50.942;5.074;2022-07-26T02:56:22;20.30;99.90
18658;DHT22;9458;50.942;5.074;2022-07-26T02:58:50;20.30;99.90
18658;DHT22;9458;50.942;5.074;2022-07-26T03:01:18;20.30;99.90
18658;DHT22;9458;50.942;5.074;2022-07-26T03:03:57;20.30;99.90
18658;DHT22;9458;50.942;5.074;2022-07-26T03:06:34;20.30;99.90
18658;DHT22;9458;50.942;5.074;2022-07-26T03:09:12;20.30;99.90
18658;DHT22;9458;50.942;5.074;2022-07-26T03:11:44;20.30;99.90
18658;DHT22;9458;50.942;5.074;2022-07-26T03:14:12;20.30;99.90
18658;DHT22;9458;50.942;5.074;2022-07-26T03:16:39;20.30;99.90
18658;DHT22;9458;50.942;5.074;2022-07-26T03:19:09;20.30;99.90
18658;DHT22;9458;50.942;5.074;2022-07-26T03:21:36;20.30;99.90
18658;DHT22;9458;50.942;5.074;2022-07-26T03:24:05;20.30;99.90
18658;DHT22;9458;50.942;5.074;2022-07-26T03:26:33;20.30;99.90
18658;DHT22;9458;50.942;5.074;2022-07-26T03:29:00;20.30;99.90
18658;DHT22;9458;50.942;5.074;2022-07-26T03:31:29;20.30;99.90
18658;DHT22;9458;50.942;5.074;2022-07-26T03:33:56;20.30;99.90
18658;DHT22;9458;50.942;5.074;2022-07-26T03:36:26;20.30;99.90
18658;DHT22;9458;50.942;5.074;2022-07-26T03:38:55;20.30;99.90
18658;DHT22;9458;50.942;5.074;2022-07-26T03:41:22;20.30;99.90
18658;DHT22;9458;50.942;5.074;2022-07-26T03:43:49;20.20;99.90
18658;DHT22;9458;50.942;5.074;2022-07-26T03:46:17;20.30;99.90
18658;DHT22;9458;50.942;5.074;2022-07-26T03:48:44;20.30;99.90
18658;DHT22;9458;50.942;5.074;2022-07-26T03:51:14;20.30;99.90
18658;DHT22;9458;50.942;5.074;2022-07-26T03:53:43;20.20;99.90
18658;DHT22;9458;50.942;5.074;2022-07-26T03:56:10;20.20;99.90
18658;DHT22;9458;50.942;5.074;2022-07-26T03:58:59;20.20;99.90
18658;DHT22;9458;50.942;5.074;2022-07-26T04:01:27;20.20;99.90
18658;DHT22;9458;50.942;5.074;2022-07-26T04:03:55;20.20;99.90
18658;DHT22;9458;50.942;5.074;2022-07-26T04:06:22;20.20;99.90
18658;DHT22;9458;50.942;5.074;2022-07-26T04:08:53;20.20;99.90
18658;DHT22;9458;50.942;5.074;2022-07-26T04:11:20;20.20;99.90
18658;DHT22;9458;50.942;5.074;2022-07-26T04:13:48;20.20;99.90
18658;DHT22;9458;50.942;5.074;2022-07-26T04:16:15;20.30;99.90
18658;DHT22;9458;50.942;5.074;2022-07-26T04:18:43;20.30;99.90
18658;DHT22;9458;50.942;5.074;2022-07-26T04:21:11;20.30;99.90
18658;DHT22;9458;50.942;5.074;2022-07-26T04:23:38;20.30;99.90
18658;DHT22;9458;50.942;5.074;2022-07-26T04:26:10;20.30;99.90
18658;DHT22;9458;50.942;5.074;2022-07-26T04:28:39;20.30;99.90
18658;DHT22;9458;50.942;5.074;2022-07-26T04:31:07;20.30;99.90
18658;DHT22;9458;50.942;5.074;2022-07-26T04:33:35;20.30;99.90
18658;DHT22;9458;50.942;5.074;2022-07-26T04:36:04;20.30;99.90
18658;DHT22;9458;50.942;5.074;2022-07-26T04:38:33;20.30;99.90
18658;DHT22;9458;50.942;5.074;2022-07-26T04:41:02;20.30;99.90
18658;DHT22;9458;50.942;5.074;2022-07-26T04:43:32;20.30;99.90
18658;DHT22;9458;50.942;5.074;2022-07-26T04:46:00;20.30;99.90
18658;DHT22;9458;50.942;5.074;2022-07-26T04:48:28;20.30;99.90
18658;DHT22;9458;50.942;5.074;2022-07-26T04:50:55;20.30;99.90
18658;DHT22;9458;50.942;5.074;2022-07-26T04:53:22;20.30;99.90
18658;DHT22;9458;50.942;5.074;2022-07-26T04:55:50;20.20;99.90
18658;DHT22;9458;50.942;5.074;2022-07-26T04:58:17;20.30;99.90
18658;DHT22;9458;50.942;5.074;2022-07-26T05:00:47;20.30;99.90
18658;DHT22;9458;50.942;5.074;2022-07-26T05:03:14;20.30;99.90
18658;DHT22;9458;50.942;5.074;2022-07-26T05:05:43;20.40;99.90
18658;DHT22;9458;50.942;5.074;2022-07-26T05:08:13;20.40;99.90
18658;DHT22;9458;50.942;5.074;2022-07-26T05:10:42;20.40;99.90
18658;DHT22;9458;50.942;5.074;2022-07-26T05:13:09;20.30;99.90
18658;DHT22;9458;50.942;5.074;2022-07-26T05:15:37;20.40;99.90
18658;DHT22;9458;50.942;5.074;2022-07-26T05:18:07;20.40;99.90
18658;DHT22;9458;50.942;5.074;2022-07-26T05:20:36;20.40;99.90
18658;DHT22;9458;50.942;5.074;2022-07-26T05:23:03;20.50;99.90
18658;DHT22;9458;50.942;5.074;2022-07-26T05:25:31;20.50;99.90
18658;DHT22;9458;50.942;5.074;2022-07-26T05:28:00;20.50;99.90
18658;DHT22;9458;50.942;5.074;2022-07-26T05:30:42;20.60;99.90
18658;DHT22;9458;50.942;5.074;2022-07-26T05:33:29;20.60;99.90
18658;DHT22;9458;50.942;5.074;2022-07-26T05:36:20;20.70;99.90
18658;DHT22;9458;50.942;5.074;2022-07-26T05:41:55;20.90;99.90
18658;DHT22;9458;50.942;5.074;2022-07-26T05:44:23;20.90;99.90
18658;DHT22;9458;50.942;5.074;2022-07-26T05:46:50;20.90;99.90
18658;DHT22;9458;50.942;5.074;2022-07-26T05:49:20;21.00;99.90
18658;DHT22;9458;50.942;5.074;2022-07-26T05:51:47;21.00;99.90
18658;DHT22;9458;50.942;5.074;2022-07-26T05:54:14;21.00;99.90
18658;DHT22;9458;50.942;5.074;2022-07-26T05:56:42;21.00;99.90
18658;DHT22;9458;50.942;5.074;2022-07-26T05:59:09;21.00;99.90
18658;DHT22;9458;50.942;5.074;2022-07-26T06:01:36;21.10;99.90
18658;DHT22;9458;50.942;5.074;2022-07-26T06:04:04;21.20;99.90
18658;DHT22;9458;50.942;5.074;2022-07-26T06:06:35;21.20;99.90
18658;DHT22;9458;50.942;5.074;2022-07-26T06:09:03;21.30;99.90
18658;DHT22;9458;50.942;5.074;2022-07-26T06:11:31;21.30;99.90
18658;DHT22;9458;50.942;5.074;2022-07-26T06:13:59;21.40;99.90
18658;DHT22;9458;50.942;5.074;2022-07-26T06:16:28;21.40;99.90
18658;DHT22;9458;50.942;5.074;2022-07-26T06:18:58;21.40;99.90
18658;DHT22;9458;50.942;5.074;2022-07-26T06:21:26;21.40;99.90
18658;DHT22;9458;50.942;5.074;2022-07-26T06:23:57;21.40;99.90
18658;DHT22;9458;50.942;5.074;2022-07-26T06:26:26;21.40;99.90
18658;DHT22;9458;50.942;5.074;2022-07-26T06:28:55;21.40;99.90
18658;DHT22;9458;50.942;5.074;2022-07-26T06:31:22;21.40;99.90
18658;DHT22;9458;50.942;5.074;2022-07-26T06:33:50;21.40;99.90
18658;DHT22;9458;50.942;5.074;2022-07-26T06:36:19;21.50;99.90
18658;DHT22;9458;50.942;5.074;2022-07-26T06:38:47;21.50;99.90
18658;DHT22;9458;50.942;5.074;2022-07-26T06:41:18;21.60;99.90
18658;DHT22;9458;50.942;5.074;2022-07-26T06:43:46;21.70;99.90
18658;DHT22;9458;50.942;5.074;2022-07-26T06:46:14;21.70;99.90
18658;DHT22;9458;50.942;5.074;2022-07-26T06:48:42;21.80;99.90
18658;DHT22;9458;50.942;5.074;2022-07-26T06:51:10;21.90;99.90
18658;DHT22;9458;50.942;5.074;2022-07-26T06:53:39;22.00;99.90
18658;DHT22;9458;50.942;5.074;2022-07-26T06:56:07;22.00;99.90
18658;DHT22;9458;50.942;5.074;2022-07-26T06:58:39;22.10;99.90
18658;DHT22;9458;50.942;5.074;2022-07-26T07:01:07;22.20;99.90
18658;DHT22;9458;50.942;5.074;2022-07-26T07:03:35;22.40;99.90
18658;DHT22;9458;50.942;5.074;2022-07-26T07:06:03;22.60;99.90
18658;DHT22;9458;50.942;5.074;2022-07-26T07:08:32;22.80;99.90
18658;DHT22;9458;50.942;5.074;2022-07-26T07:11:00;23.00;99.90
18658;DHT22;9458;50.942;5.074;2022-07-26T07:13:28;23.90;99.90
18658;DHT22;9458;50.942;5.074;2022-07-26T07:15:57;24.60;99.90
18658;DHT22;9458;50.942;5.074;2022-07-26T07:18:25;24.60;99.90
18658;DHT22;9458;50.942;5.074;2022-07-26T07:20:53;24.70;99.90
18658;DHT22;9458;50.942;5.074;2022-07-26T07:23:21;25.00;99.90
18658;DHT22;9458;50.942;5.074;2022-07-26T07:25:50;25.80;99.90
18658;DHT22;9458;50.942;5.074;2022-07-26T07:28:18;26.70;99.90
18658;DHT22;9458;50.942;5.074;2022-07-26T07:30:46;27.60;99.90
18658;DHT22;9458;50.942;5.074;2022-07-26T07:33:16;28.50;99.90
18658;DHT22;9458;50.942;5.074;2022-07-26T07:35:43;28.90;99.90
18658;DHT22;9458;50.942;5.074;2022-07-26T07:38:12;28.70;99.70
18658;DHT22;9458;50.942;5.074;2022-07-26T07:40:39;28.30;99.70
18658;DHT22;9458;50.942;5.074;2022-07-26T07:43:07;27.90;99.60
18658;DHT22;9458;50.942;5.074;2022-07-26T07:45:36;27.50;99.20
18658;DHT22;9458;50.942;5.074;2022-07-26T07:48:04;27.20;99.40
18658;DHT22;9458;50.942;5.074;2022-07-26T07:50:37;27.00;99.70
18658;DHT22;9458;50.942;5.074;2022-07-26T07:53:05;26.80;99.60
18658;DHT22;9458;50.942;5.074;2022-07-26T07:55:33;26.70;99.90
18658;DHT22;9458;50.942;5.074;2022-07-26T07:58:02;26.40;99.90
18658;DHT22;9458;50.942;5.074;2022-07-26T08:00:30;26.30;99.90
18658;DHT22;9458;50.942;5.074;2022-07-26T08:02:58;26.10;99.90
18658;DHT22;9458;50.942;5.074;2022-07-26T08:05:25;26.00;99.90
18658;DHT22;9458;50.942;5.074;2022-07-26T08:07:56;25.90;99.90
18658;DHT22;9458;50.942;5.074;2022-07-26T08:10:24;25.80;99.90
18658;DHT22;9458;50.942;5.074;2022-07-26T08:12:52;25.60;99.90
18658;DHT22;9458;50.942;5.074;2022-07-26T08:15:19;25.30;99.90
18658;DHT22;9458;50.942;5.074;2022-07-26T08:17:48;25.10;99.90
18658;DHT22;9458;50.942;5.074;2022-07-26T08:20:17;24.90;99.90
18658;DHT22;9458;50.942;5.074;2022-07-26T08:22:45;24.80;99.90
18658;DHT22;9458;50.942;5.074;2022-07-26T08:25:14;24.60;99.90
18658;DHT22;9458;50.942;5.074;2022-07-26T08:27:42;24.60;99.90
18658;DHT22;9458;50.942;5.074;2022-07-26T08:30:11;24.50;99.90
18658;DHT22;9458;50.942;5.074;2022-07-26T08:32:39;24.40;99.90
18658;DHT22;9458;50.942;5.074;2022-07-26T08:35:07;24.40;99.90
18658;DHT22;9458;50.942;5.074;2022-07-26T08:37:37;24.20;99.90
18658;DHT22;9458;50.942;5.074;2022-07-26T08:40:06;24.20;99.90
18658;DHT22;9458;50.942;5.074;2022-07-26T08:42:36;24.10;99.90
18658;DHT22;9458;50.942;5.074;2022-07-26T08:45:04;24.10;99.90
18658;DHT22;9458;50.942;5.074;2022-07-26T08:47:32;24.00;99.90
18658;DHT22;9458;50.942;5.074;2022-07-26T08:50:01;24.00;99.90
18658;DHT22;9458;50.942;5.074;2022-07-26T08:52:29;24.00;99.90
18658;DHT22;9458;50.942;5.074;2022-07-26T08:54:58;24.00;99.90
18658;DHT22;9458;50.942;5.074;2022-07-26T08:57:27;23.90;99.90
18658;DHT22;9458;50.942;5.074;2022-07-26T09:00:16;24.00;99.90
18658;DHT22;9458;50.942;5.074;2022-07-26T09:02:44;24.00;99.90
18658;DHT22;9458;50.942;5.074;2022-07-26T09:05:13;24.00;99.90
18658;DHT22;9458;50.942;5.074;2022-07-26T09:07:41;24.10;99.90
18658;DHT22;9458;50.942;5.074;2022-07-26T09:10:14;24.00;99.90
18658;DHT22;9458;50.942;5.074;2022-07-26T09:12:42;24.00;99.90
18658;DHT22;9458;50.942;5.074;2022-07-26T09:15:20;23.90;99.90
18658;DHT22;9458;50.942;5.074;2022-07-26T09:17:49;24.00;99.90
18658;DHT22;9458;50.942;5.074;2022-07-26T09:20:20;23.90;99.90
18658;DHT22;9458;50.942;5.074;2022-07-26T09:23:00;23.90;99.90
18658;DHT22;9458;50.942;5.074;2022-07-26T09:25:30;23.90;99.90
18658;DHT22;9458;50.942;5.074;2022-07-26T09:27:59;23.90;99.90
18658;DHT22;9458;50.942;5.074;2022-07-26T09:30:31;24.00;99.90
18658;DHT22;9458;50.942;5.074;2022-07-26T09:33:05;24.00;99.90
18658;DHT22;9458;50.942;5.074;2022-07-26T09:36:01;24.10;99.90
18658;DHT22;9458;50.942;5.074;2022-07-26T09:38:40;24.10;99.90
18658;DHT22;9458;50.942;5.074;2022-07-26T09:41:19;24.20;99.90
18658;DHT22;9458;50.942;5.074;2022-07-26T09:43:47;24.40;99.90
18658;DHT22;9458;50.942;5.074;2022-07-26T09:46:17;24.60;99.90
18658;DHT22;9458;50.942;5.074;2022-07-26T09:48:45;24.80;99.90
18658;DHT22;9458;50.942;5.074;2022-07-26T09:51:12;24.90;99.90
18658;DHT22;9458;50.942;5.074;2022-07-26T09:53:40;25.10;99.90
18658;DHT22;9458;50.942;5.074;2022-07-26T09:56:08;25.40;99.90
18658;DHT22;9458;50.942;5.074;2022-07-26T09:58:36;25.90;99.90
18658;DHT22;9458;50.942;5.074;2022-07-26T10:01:05;26.30;99.10
18658;DHT22;9458;50.942;5.074;2022-07-26T10:03:34;26.90;98.70
18658;DHT22;9458;50.942;5.074;2022-07-26T10:06:02;27.00;96.90
18658;DHT22;9458;50.942;5.074;2022-07-26T10:08:30;27.10;97.30
18658;DHT22;9458;50.942;5.074;2022-07-26T10:11:02;27.20;97.70
18658;DHT22;9458;50.942;5.074;2022-07-26T10:13:30;27.30;97.60
18658;DHT22;9458;50.942;5.074;2022-07-26T10:15:57;27.40;97.40
18658;DHT22;9458;50.942;5.074;2022-07-26T10:18:53;27.50;97.00
18658;DHT22;9458;50.942;5.074;2022-07-26T10:21:24;27.50;96.60
18658;DHT22;9458;50.942;5.074;2022-07-26T10:23:52;27.40;95.90
18658;DHT22;9458;50.942;5.074;2022-07-26T10:26:37;27.30;95.60
18658;DHT22;9458;50.942;5.074;2022-07-26T10:29:27;27.10;94.70
18658;DHT22;9458;50.942;5.074;2022-07-26T10:32:15;26.90;95.10
18658;DHT22;9458;50.942;5.074;2022-07-26T10:34:44;26.80;95.30
18658;DHT22;9458;50.942;5.074;2022-07-26T10:37:21;26.70;95.90
18658;DHT22;9458;50.942;5.074;2022-07-26T10:40:17;26.80;95.70
18658;DHT22;9458;50.942;5.074;2022-07-26T10:42:45;26.80;95.80
18658;DHT22;9458;50.942;5.074;2022-07-26T10:45:18;26.80;95.20
18658;DHT22;9458;50.942;5.074;2022-07-26T10:48:10;26.70;94.90
18658;DHT22;9458;50.942;5.074;2022-07-26T10:50:40;26.60;95.20
18658;DHT22;9458;50.942;5.074;2022-07-26T10:53:09;26.60;95.10
18658;DHT22;9458;50.942;5.074;2022-07-26T10:55:51;26.60;95.10
18658;DHT22;9458;50.942;5.074;2022-07-26T10:58:19;26.60;95.60
18658;DHT22;9458;50.942;5.074;2022-07-26T11:00:55;26.70;95.80
18658;DHT22;9458;50.942;5.074;2022-07-26T11:03:23;26.70;95.50
18658;DHT22;9458;50.942;5.074;2022-07-26T11:05:54;26.70;95.60
18658;DHT22;9458;50.942;5.074;2022-07-26T11:08:28;26.70;95.80
18658;DHT22;9458;50.942;5.074;2022-07-26T11:10:56;26.60;95.40
18658;DHT22;9458;50.942;5.074;2022-07-26T11:13:26;26.60;95.60
18658;DHT22;9458;50.942;5.074;2022-07-26T11:15:59;26.60;95.30
18658;DHT22;9458;50.942;5.074;2022-07-26T11:18:28;26.60;94.80
18658;DHT22;9458;50.942;5.074;2022-07-26T11:21:09;26.60;94.80
18658;DHT22;9458;50.942;5.074;2022-07-26T11:23:38;26.60;95.00
18658;DHT22;9458;50.942;5.074;2022-07-26T11:26:09;26.60;94.80
18658;DHT22;9458;50.942;5.074;2022-07-26T11:28:56;26.70;95.00
18658;DHT22;9458;50.942;5.074;2022-07-26T11:31:27;26.80;94.60
18658;DHT22;9458;50.942;5.074;2022-07-26T11:33:55;26.80;94.30
18658;DHT22;9458;50.942;5.074;2022-07-26T11:36:37;26.80;94.30
18658;DHT22;9458;50.942;5.074;2022-07-26T11:39:07;26.80;93.90
18658;DHT22;9458;50.942;5.074;2022-07-26T11:41:35;26.70;94.00
18658;DHT22;9458;50.942;5.074;2022-07-26T11:44:03;26.70;94.30
18658;DHT22;9458;50.942;5.074;2022-07-26T11:46:36;26.70;94.70
18658;DHT22;9458;50.942;5.074;2022-07-26T11:49:12;26.60;95.40
18658;DHT22;9458;50.942;5.074;2022-07-26T11:51:48;26.60;96.40
18658;DHT22;9458;50.942;5.074;2022-07-26T11:54:15;26.50;96.90
18658;DHT22;9458;50.942;5.074;2022-07-26T11:56:50;26.50;97.10
18658;DHT22;9458;50.942;5.074;2022-07-26T11:59:18;26.40;97.10
18658;DHT22;9458;50.942;5.074;2022-07-26T12:01:45;26.40;97.00
18658;DHT22;9458;50.942;5.074;2022-07-26T12:04:21;26.40;97.00
18658;DHT22;9458;50.942;5.074;2022-07-26T12:06:50;26.40;97.10
18658;DHT22;9458;50.942;5.074;2022-07-26T12:09:32;26.40;97.30
18658;DHT22;9458;50.942;5.074;2022-07-26T12:12:01;26.30;96.40
18658;DHT22;9458;50.942;5.074;2022-07-26T12:14:30;26.30;96.70
18658;DHT22;9458;50.942;5.074;2022-07-26T12:16:57;26.40;97.20
18658;DHT22;9458;50.942;5.074;2022-07-26T12:19:36;26.40;97.20
18658;DHT22;9458;50.942;5.074;2022-07-26T12:22:09;26.50;97.20
18658;DHT22;9458;50.942;5.074;2022-07-26T12:24:43;26.50;97.00
18658;DHT22;9458;50.942;5.074;2022-07-26T12:27:13;26.60;97.00
18658;DHT22;9458;50.942;5.074;2022-07-26T12:29:43;26.60;97.20
18658;DHT22;9458;50.942;5.074;2022-07-26T12:32:12;26.60;97.00
18658;DHT22;9458;50.942;5.074;2022-07-26T12:34:42;26.60;96.80
18658;DHT22;9458;50.942;5.074;2022-07-26T12:37:22;26.70;97.20
18658;DHT22;9458;50.942;5.074;2022-07-26T12:40:04;26.70;97.10
18658;DHT22;9458;50.942;5.074;2022-07-26T12:42:33;26.80;96.80
18658;DHT22;9458;50.942;5.074;2022-07-26T12:45:03;26.80;96.80
18658;DHT22;9458;50.942;5.074;2022-07-26T12:47:31;26.80;96.40
18658;DHT22;9458;50.942;5.074;2022-07-26T12:49:59;26.70;96.30
18658;DHT22;9458;50.942;5.074;2022-07-26T12:52:30;26.60;96.40
18658;DHT22;9458;50.942;5.074;2022-07-26T12:54:58;26.60;96.70
18658;DHT22;9458;50.942;5.074;2022-07-26T12:57:26;26.60;95.90
18658;DHT22;9458;50.942;5.074;2022-07-26T12:59:55;26.50;95.50
18658;DHT22;9458;50.942;5.074;2022-07-26T13:02:22;26.40;94.90
18658;DHT22;9458;50.942;5.074;2022-07-26T13:04:50;26.40;94.80
18658;DHT22;9458;50.942;5.074;2022-07-26T13:07:18;26.30;95.00
18658;DHT22;9458;50.942;5.074;2022-07-26T13:09:47;26.30;95.30
18658;DHT22;9458;50.942;5.074;2022-07-26T13:12:15;26.20;95.60
18658;DHT22;9458;50.942;5.074;2022-07-26T13:14:43;26.20;95.70
18658;DHT22;9458;50.942;5.074;2022-07-26T13:17:10;26.10;95.40
18658;DHT22;9458;50.942;5.074;2022-07-26T13:19:38;26.00;95.00
18658;DHT22;9458;50.942;5.074;2022-07-26T13:22:07;26.00;95.40
18658;DHT22;9458;50.942;5.074;2022-07-26T13:24:36;26.00;95.70
18658;DHT22;9458;50.942;5.074;2022-07-26T13:27:07;25.80;94.90
18658;DHT22;9458;50.942;5.074;2022-07-26T13:29:35;25.80;95.40
18658;DHT22;9458;50.942;5.074;2022-07-26T13:32:03;25.80;95.80
18658;DHT22;9458;50.942;5.074;2022-07-26T13:34:30;25.70;96.00
18658;DHT22;9458;50.942;5.074;2022-07-26T13:36:58;25.70;96.20
18658;DHT22;9458;50.942;5.074;2022-07-26T13:39:26;25.70;96.30
18658;DHT22;9458;50.942;5.074;2022-07-26T13:41:54;25.60;96.50
18658;DHT22;9458;50.942;5.074;2022-07-26T13:44:23;25.50;96.90
18658;DHT22;9458;50.942;5.074;2022-07-26T13:46:50;25.50;97.10
18658;DHT22;9458;50.942;5.074;2022-07-26T13:49:17;25.30;96.70
18658;DHT22;9458;50.942;5.074;2022-07-26T13:51:45;25.30;96.80
18658;DHT22;9458;50.942;5.074;2022-07-26T13:54:27;25.20;96.70
18658;DHT22;9458;50.942;5.074;2022-07-26T13:56:54;25.20;97.00
18658;DHT22;9458;50.942;5.074;2022-07-26T13:59:23;25.20;97.40
18658;DHT22;9458;50.942;5.074;2022-07-26T14:01:51;25.20;97.50
18658;DHT22;9458;50.942;5.074;2022-07-26T14:04:19;25.10;97.50
18658;DHT22;9458;50.942;5.074;2022-07-26T14:06:46;25.10;97.50
18658;DHT22;9458;50.942;5.074;2022-07-26T14:09:14;25.10;97.70
18658;DHT22;9458;50.942;5.074;2022-07-26T14:11:43;25.10;97.50
18658;DHT22;9458;50.942;5.074;2022-07-26T14:14:11;25.00;96.90
18658;DHT22;9458;50.942;5.074;2022-07-26T14:16:40;25.00;97.40
18658;DHT22;9458;50.942;5.074;2022-07-26T14:19:08;25.10;97.50
18658;DHT22;9458;50.942;5.074;2022-07-26T14:21:37;25.20;97.40
18658;DHT22;9458;50.942;5.074;2022-07-26T14:24:05;25.30;97.20
18658;DHT22;9458;50.942;5.074;2022-07-26T14:26:33;25.30;97.30
18658;DHT22;9458;50.942;5.074;2022-07-26T14:29:00;25.30;97.70
18658;DHT22;9458;50.942;5.074;2022-07-26T14:31:27;25.30;97.50
18658;DHT22;9458;50.942;5.074;2022-07-26T14:33:57;25.30;97.20
18658;DHT22;9458;50.942;5.074;2022-07-26T14:36:25;25.30;97.10
18658;DHT22;9458;50.942;5.074;2022-07-26T14:38:52;25.20;97.20
18658;DHT22;9458;50.942;5.074;2022-07-26T14:41:21;25.30;97.00
18658;DHT22;9458;50.942;5.074;2022-07-26T14:43:48;25.30;97.10
18658;DHT22;9458;50.942;5.074;2022-07-26T14:46:16;25.30;97.40
18658;DHT22;9458;50.942;5.074;2022-07-26T14:48:45;25.20;97.00
18658;DHT22;9458;50.942;5.074;2022-07-26T14:51:14;25.10;96.70
18658;DHT22;9458;50.942;5.074;2022-07-26T14:53:42;24.80;96.70
18658;DHT22;9458;50.942;5.074;2022-07-26T14:56:09;24.90;97.30
18658;DHT22;9458;50.942;5.074;2022-07-26T14:58:36;25.00;97.40
18658;DHT22;9458;50.942;5.074;2022-07-26T15:01:04;25.10;97.50
18658;DHT22;9458;50.942;5.074;2022-07-26T15:03:32;25.20;97.20
18658;DHT22;9458;50.942;5.074;2022-07-26T15:06:00;25.20;97.20
18658;DHT22;9458;50.942;5.074;2022-07-26T15:08:30;25.20;97.00
18658;DHT22;9458;50.942;5.074;2022-07-26T15:10:58;25.10;96.90
18658;DHT22;9458;50.942;5.074;2022-07-26T15:13:25;25.10;97.20
18658;DHT22;9458;50.942;5.074;2022-07-26T15:15:53;25.00;97.20
18658;DHT22;9458;50.942;5.074;2022-07-26T15:18:21;24.80;97.40
18658;DHT22;9458;50.942;5.074;2022-07-26T15:20:48;24.80;97.60
18658;DHT22;9458;50.942;5.074;2022-07-26T15:23:16;24.80;97.60
18658;DHT22;9458;50.942;5.074;2022-07-26T15:25:46;24.70;98.00
18658;DHT22;9458;50.942;5.074;2022-07-26T15:28:14;24.70;98.00
18658;DHT22;9458;50.942;5.074;2022-07-26T15:30:42;24.70;98.00
18658;DHT22;9458;50.942;5.074;2022-07-26T15:33:10;24.60;97.90
18658;DHT22;9458;50.942;5.074;2022-07-26T15:35:39;24.60;98.10
18658;DHT22;9458;50.942;5.074;2022-07-26T15:38:07;24.60;98.00
18658;DHT22;9458;50.942;5.074;2022-07-26T15:40:37;24.60;97.70
18658;DHT22;9458;50.942;5.074;2022-07-26T15:43:07;24.60;97.70
18658;DHT22;9458;50.942;5.074;2022-07-26T15:45:36;24.60;97.70
18658;DHT22;9458;50.942;5.074;2022-07-26T15:48:06;24.60;97.80
18658;DHT22;9458;50.942;5.074;2022-07-26T15:50:33;24.60;97.30
18658;DHT22;9458;50.942;5.074;2022-07-26T15:53:02;24.60;97.30
18658;DHT22;9458;50.942;5.074;2022-07-26T15:55:29;24.40;97.10
18658;DHT22;9458;50.942;5.074;2022-07-26T15:57:56;24.50;97.40
18658;DHT22;9458;50.942;5.074;2022-07-26T16:00:26;24.40;97.40
18658;DHT22;9458;50.942;5.074;2022-07-26T16:02:54;24.40;97.80
18658;DHT22;9458;50.942;5.074;2022-07-26T16:05:21;24.40;98.00